首页
METAR-TAF:

METAR-TAF

机场 :

香港國際機場

香港, 中华人民共和国

纬度: 22-19N, 经度: 113-55E, 海拔: 9米

当前天气观测

该预报发布于24分钟前的16:30 UTC
风速10节,风向
温度 21°C
湿度 73%
气压 1020 hPa
能见度10公里或以上
少量云层高于2000英尺
散云层高于2800英尺

METAR: VHHH 211630Z 36010KT 9999 FEW020 SCT028 21/16 Q1020 NOSIG

时间: 00:54 (16:54 UTC)

预报

该预报发布于5小时和54分钟前的11:00 UTC
预报有效从21日的 12点(UTC)到 22日的 18点(UTC)
风速15节,风向
能見度: 8000
少量云层高于2000英尺
散云层高于3500英尺
短暂存在
从 21日的 12点(UTC)到 21日的 16点(UTC)
风速20节,风向西北,有时为30节阵风
能見度: 3500
轻雾, 小雨

TAF: VHHH 211100Z 2112/2218 35015KT 8000 FEW020 SCT035 TX23/2112Z TX21/2206Z TN17/2123Z TEMPO 2112/2116 32020G30KT 3500 BR -RA

超过4000个机场的气象观测和天气预报(METAR&TAF报告)。

可查询的气象台以黄色和红色小点在地图上表示。

将鼠标移到小点上方,可查看气象台名称。

然后点击查看天气观测和预报。

如需切换地图:点击带黑十字的绿色按钮放大地图;点击带横线的绿色按钮缩小地图;或者点击绿色箭头查看邻近地区的地图。


METAR-TAF: